Historyczne dane pomiarowe

Dodano dane terminowe – wersja testowa.

Dane z okresu 1951-2019

Wersja bazy: 1.34 [2019-03-16, lista zmian], aktualizacja planowana na 2019-04-15

Dane meteo z obszaru Polski uzyskane na podstawie danych udostępnionych przez Instytut Meteorologii i Gospodarki Wodnej – Państwowy Instytut Badawczy.

 

Wybierz Datę:    

       

TemperaturaWilgotnośćWiatrCiśnienieOpadyŚniegCzas trwania zjawisk
 Stacja t tx tn tng RH VA  wxwx mslp ppp RRR   cm mm wxwxwxwxwxwxwx
2019-07-25 19.9 26.3 13.2 11.3-- 0.0----- 0.0------------
2019-07-24 19.0 24.4 14.1 13.1-- 0.7----- 0.0------------
2019-07-14 14.0 17.1 11.0 9.7-- 6.0----- 3.0------------
2019-07-13 13.7 17.3 10.8 9.5-- 7.0----- 4.8------------
2019-07-12 13.7 18.6 7.3 3.8-- 5.7----- 1.0------------
2019-07-11 13.3 17.4 8.8 5.8-- 7.3----- 6.0------------
2019-07-10 11.3 16.0 6.1 4.8-- 6.3----- 0.3------------
2019-07-09 12.0 16.3 6.1 2.8-- 5.3----- 0.0------------
2019-07-08 12.7 17.2 7.9 4.8-- 5.7----- 0.0------------
2019-07-07 17.6 22.8 13.0 9.7-- 5.3----- 0.0------------
2019-07-06 19.2 25.7 12.1 10.7-- 5.3----- 0.0------------
2019-07-05 15.8 21.4 9.8 6.8-- 5.7----- 0.0------------
2019-07-04 15.5 21.8 8.0 7.6-- 0.3----- 0.0------------
2019-07-03 14.8 20.2 9.8 4.8-- 0.7----- 0.0------------
2019-07-02 18.9 22.5 14.7 11.1-- 4.7----- 0.0------------
2019-07-01 22.1 30.1 18.0 14.7-- 3.7----- 13.8------------
2019-06-30 21.7 29.6 12.8 11.3-- 0.0----- 0.0------------
2019-06-29 18.0 24.6 11.2 9.7-- 2.7----- 0.0------------
2019-06-28 16.2 21.3 12.2 8.0-- 2.3----- 0.0------------
2019-06-27 22.8 26.9 20.7 16.7-- 2.3----- 0.0------------
2019-06-26 24.4 30.4 18.0 13.7-- 0.7----- 0.0------------
2019-06-25 22.3 29.3 15.2 10.7-- 3.3----- 0.0------------
2019-06-24 18.9 23.6 13.6 10.7-- 3.0----- 0.0------------
2019-06-23 17.0 20.8 13.1 10.5-- 5.7----- 0.0------------
2019-06-22 16.5 20.4 12.0 5.7-- 7.7----- 12.4------------
2019-06-21 18.4 23.6 14.7 12.0-- 6.7----- 44.8------------
2019-06-20 18.8 23.4 15.7 13.7-- 7.3----- 7.0------------
2019-06-19 18.8 25.0 11.4 8.9-- 5.0----- 0.3------------
2019-06-18 18.5 25.9 11.2 6.8-- 4.0----- 0.0------------
2019-06-17 18.1 22.6 14.7 11.7-- 6.3----- 0.0------------
2019-06-16 20.1 26.9 16.2 13.2-- 4.0----- 0.0------------
2019-06-15 23.8 29.3 18.2 12.2-- 3.3----- 0.0------------
2019-06-14 22.0 28.2 17.0 13.0-- 4.0----- 0.0------------
2019-06-13 24.0 30.0 18.3 16.7-- 2.7----- 0.0------------
2019-06-12 22.3 27.9 17.1 12.1-- 0.0----- 0.0------------
2019-06-11 22.5 28.9 15.4 10.7-- 1.3----- 0.0------------
2019-06-10 21.7 28.1 14.7 9.3-- 1.0----- 0.0------------
2019-06-09 15.5 21.8 8.3 5.8-- 2.0----- 0.0------------
2019-06-08 18.2 24.3 14.0 8.5-- 4.0----- 0.3------------
2019-06-07 17.2 23.5 12.2 7.8-- 7.0----- 2.6------------
2019-06-06 17.4 23.3 12.8 7.8-- 4.7----- 7.7------------
2019-06-05 18.0 23.4 13.4 7.6-- 2.7----- 0.0------------
2019-06-04 18.7 23.4 13.1 7.8-- 3.3----- 0.0------------
2019-06-03 17.8 22.8 12.1 6.2-- 1.7----- 0.0------------
2019-06-02 16.9 22.5 11.2 7.6-- 1.7----- 0.0------------
2019-06-01 15.9 21.0 12.0 8.5-- 3.0----- 0.0------------
2019-05-31 12.1 18.2 5.9 5.6-- 3.3----- 0.0------------
2019-05-30 7.8 9.7 6.1 4.6-- 8.0----- 10.1------------
2019-05-29 10.0 14.4 7.7 5.8-- 8.0----- 2.2------------
2019-05-28 15.1 18.0 12.6 8.8-- 7.3----- 15.6------------
2019-05-27 15.8 21.5 11.0 5.8-- 6.7----- 1.5------------
108.4 ms

 

Źródłem pochodzenia danych jest Instytut Meteorologii i Gospodarki Wodnej – Państwowy Instytut Badawczy. Dane Instytutu Meteorologii i Gospodarki Wodnej – Państwowego Instytutu Badawczego zostały przetworzone.

Dane źródłowe można odnaleźć na stronie https://dane.imgw.pl